Time;durP1;ratioP1;P1;durP2;ratioP2;P2;SDS_P1;SDS_P2;PMS_P1;PMS_P2;Temp;Humidity;BMP_temperature;BMP_pressure;BME280_temperature;BME280_humidity;BME280_pressure;Samples;Min_cycle;Max_cycle;Signal;HPM_P1;HPM_P2
2021/03/06 00:01:28;;;;;;;4.35;2.30;;;;;;;7.81;42.99;100785.77;1821984;78;21230;-78
2021/03/06 00:03:57;;;;;;;4.90;2.50;;;;;;;7.82;42.65;100790.13;1820724;78;21216;-78
2021/03/06 00:06:27;;;;;;;4.12;1.52;;;;;;;7.86;42.36;100788.89;1828315;78;21204;-77
2021/03/06 00:08:54;;;;;;;2.20;1.70;;;;;;;7.88;41.87;100786.08;1829117;78;21529;-78
2021/03/06 00:11:23;;;;;;;2.05;1.40;;;;;;;7.87;41.83;100786.57;1819095;78;22237;-80
2021/03/06 00:13:51;;;;;;;2.47;1.42;;;;;;;7.88;41.73;100790.92;1822298;78;21173;-81
2021/03/06 00:16:18;;;;;;;1.45;1.20;;;;;;;7.89;41.39;100789.09;1827821;78;21173;-79
2021/03/06 00:18:45;;;;;;;2.60;1.65;;;;;;;7.91;41.32;100791.16;1775748;79;21196;-76
2021/03/06 00:21:13;;;;;;;2.92;2.33;;;;;;;7.93;41.69;100789.19;1830226;78;21156;-77
2021/03/06 00:23:42;;;;;;;4.92;1.87;;;;;;;7.95;41.66;100787.25;1828527;78;21195;-76
2021/03/06 00:26:09;;;;;;;1.50;1.20;;;;;;;7.95;41.39;100794.38;1830211;78;21149;-77
2021/03/06 00:28:37;;;;;;;2.17;1.17;;;;;;;7.92;40.31;100790.17;1802949;78;21196;-77
2021/03/06 00:31:04;;;;;;;2.60;1.20;;;;;;;7.88;39.83;100787.41;1805039;78;21153;-76
2021/03/06 00:33:32;;;;;;;2.10;1.45;;;;;;;7.88;40.04;100788.74;1843032;77;21136;-74
2021/03/06 00:35:59;;;;;;;2.72;1.50;;;;;;;7.89;40.06;100783.27;1817874;78;21128;-79
2021/03/06 00:38:27;;;;;;;2.52;1.47;;;;;;;7.91;39.92;100794.31;1816831;78;21148;-78
2021/03/06 00:40:54;;;;;;;2.05;1.27;;;;;;;7.93;39.69;100799.02;1807231;79;21159;-76
2021/03/06 00:43:22;;;;;;;2.22;1.60;;;;;;;7.95;39.58;100799.71;1810099;77;21192;-79
2021/03/06 00:45:49;;;;;;;3.58;1.25;;;;;;;7.97;39.57;100793.77;1840443;78;21465;-78
2021/03/06 00:48:17;;;;;;;3.22;1.30;;;;;;;7.99;39.58;100793.14;1840261;78;21159;-80
2021/03/06 00:50:45;;;;;;;2.75;1.62;;;;;;;8.00;39.37;100785.02;1840416;78;21164;-76
2021/03/06 00:53:13;;;;;;;2.55;0.95;;;;;;;8.01;39.75;100784.53;1840357;78;21136;-77
2021/03/06 00:55:41;;;;;;;3.80;1.90;;;;;;;7.99;39.30;100788.64;1840118;78;21683;-80
2021/03/06 00:58:08;;;;;;;3.62;1.85;;;;;;;7.98;38.83;100782.95;1840171;78;21116;-76
2021/03/06 01:00:36;;;;;;;3.15;1.42;;;;;;;7.98;38.33;100781.62;1810493;78;21188;-76
2021/03/06 01:03:06;;;;;;;4.08;1.60;;;;;;;7.95;37.75;100781.91;1840384;78;21618;-81
2021/03/06 01:05:34;;;;;;;2.50;1.05;;;;;;;7.94;37.98;100776.69;1840349;77;21552;-83
2021/03/06 01:08:04;;;;;;;1.25;0.72;;;;;;;7.95;37.91;100780.58;1796346;78;21128;-77
2021/03/06 01:10:37;;;;;;;1.27;0.90;;;;;;;7.97;37.99;100781.28;1840396;78;21176;-78
2021/03/06 01:13:05;;;;;;;1.25;0.70;;;;;;;8.01;37.73;100779.19;1840320;78;21164;-76
2021/03/06 01:15:33;;;;;;;1.20;0.62;;;;;;;8.04;37.54;100780.23;1840153;77;21026;-77
2021/03/06 01:18:02;;;;;;;0.50;0.47;;;;;;;8.05;37.56;100780.13;1839790;78;21156;-78
2021/03/06 01:20:32;;;;;;;0.72;0.60;;;;;;;8.06;37.37;100783.63;1840041;78;21607;-81
2021/03/06 01:22:59;;;;;;;1.30;0.80;;;;;;;8.07;37.00;100781.31;1840365;78;21163;-78
2021/03/06 01:25:27;;;;;;;1.85;1.00;;;;;;;8.04;36.76;100775.78;1838866;78;21168;-75
2021/03/06 01:27:55;;;;;;;2.92;1.67;;;;;;;8.02;36.62;100776.38;1814455;78;21626;-78
2021/03/06 01:30:26;;;;;;;4.28;2.10;;;;;;;8.01;36.81;100769.86;1806959;79;21144;-78
2021/03/06 01:32:53;;;;;;;4.15;2.45;;;;;;;8.01;36.89;100768.52;1807458;79;21171;-79
2021/03/06 01:35:23;;;;;;;3.10;1.92;;;;;;;8.00;37.14;100773.02;1804698;79;21678;-78
2021/03/06 01:37:51;;;;;;;2.40;1.60;;;;;;;8.01;37.41;100780.03;1807310;79;21671;-79
2021/03/06 01:40:26;;;;;;;3.00;1.30;;;;;;;8.02;37.81;100772.37;1806944;79;21184;-74
2021/03/06 01:42:54;;;;;;;1.82;1.40;;;;;;;8.04;38.26;100773.56;1816345;78;21166;-78
2021/03/06 01:45:22;;;;;;;2.12;1.60;;;;;;;8.05;38.50;100785.46;1823228;77;21619;-76
2021/03/06 01:47:50;;;;;;;2.10;1.72;;;;;;;8.03;38.76;100784.73;1817494;77;21203;-78
2021/03/06 01:50:32;;;;;;;1.98;1.57;;;;;;;8.03;38.99;100791.41;1816204;78;21450;-79
2021/03/06 01:53:01;;;;;;;2.30;1.60;;;;;;;8.05;39.04;100790.80;1814430;78;21132;-79
2021/03/06 01:55:29;;;;;;;3.80;1.80;;;;;;;8.04;38.96;100789.58;1822117;78;21172;-77
2021/03/06 01:57:57;;;;;;;2.72;1.77;;;;;;;8.03;39.15;100790.06;1822314;78;21144;-79
2021/03/06 02:00:27;;;;;;;5.05;2.10;;;;;;;8.06;39.09;100790.30;1821800;78;21200;-79
2021/03/06 02:02:54;;;;;;;2.85;2.02;;;;;;;8.06;39.23;100795.14;1825210;78;21181;-77
2021/03/06 02:05:23;;;;;;;5.45;2.30;;;;;;;8.06;39.39;100804.48;1834500;77;21628;-80
2021/03/06 02:07:52;;;;;;;5.35;2.75;;;;;;;8.07;39.42;100810.17;1821770;78;21362;-80
2021/03/06 02:10:28;;;;;;;4.60;1.95;;;;;;;8.06;39.61;100809.82;1824325;78;21152;-75
2021/03/06 02:13:38;;;;;;;4.12;2.25;;;;;;;8.07;39.40;100806.66;1799435;78;22177;-75
2021/03/06 02:16:23;;;;;;;5.60;2.80;;;;;;;8.08;39.50;100811.01;1825177;78;21506;-76
2021/03/06 02:21:52;;;;;;;5.58;3.02;;;;;;;8.13;39.64;100804.81;1864494;76;22693;-79
2021/03/06 02:24:37;;;;;;;5.80;3.22;;;;;;;8.09;39.64;100809.56;1836440;77;21165;-77
2021/03/06 02:27:44;;;;;;;6.42;2.95;;;;;;;8.09;39.43;100824.23;1831104;77;21157;-78
2021/03/06 02:30:12;;;;;;;6.65;2.75;;;;;;;8.10;39.56;100831.25;1840985;77;21187;-76
2021/03/06 02:32:46;;;;;;;5.08;2.90;;;;;;;8.08;39.83;100838.56;1809732;78;21462;-78
2021/03/06 02:35:16;;;;;;;4.22;2.58;;;;;;;8.09;40.07;100844.73;1801424;77;21168;-76
2021/03/06 02:37:54;;;;;;;4.22;2.42;;;;;;;8.09;40.28;100850.08;1831463;77;21221;-75
2021/03/06 02:40:22;;;;;;;3.08;2.12;;;;;;;8.08;40.40;100839.89;1794653;78;21184;-76
2021/03/06 02:42:50;;;;;;;4.67;2.50;;;;;;;8.07;40.58;100834.17;1803045;78;21682;-78
2021/03/06 02:45:20;;;;;;;3.95;2.20;;;;;;;8.08;40.61;100845.69;1799197;77;21164;-79
2021/03/06 02:47:47;;;;;;;4.22;2.60;;;;;;;8.05;40.69;100846.82;1826070;78;21161;-77
2021/03/06 02:50:15;;;;;;;4.37;2.80;;;;;;;8.03;40.72;100855.92;1805579;78;21165;-78
2021/03/06 02:52:43;;;;;;;4.42;2.52;;;;;;;8.03;40.85;100859.42;1826082;78;21157;-77
2021/03/06 02:55:13;;;;;;;4.12;2.45;;;;;;;8.01;40.76;100864.06;1805635;78;21180;-78
2021/03/06 02:58:06;;;;;;;4.10;2.67;;;;;;;8.01;40.64;100865.40;1778571;80;21193;-78
2021/03/06 03:00:52;;;;;;;4.47;2.67;;;;;;;8.01;40.74;100880.07;1778076;80;21226;-76
2021/03/06 03:03:29;;;;;;;4.45;3.25;;;;;;;8.00;40.83;100873.55;1749096;80;21205;-78
2021/03/06 03:06:17;;;;;;;3.67;3.27;;;;;;;7.98;41.09;100876.32;1778635;80;21170;-75
2021/03/06 03:08:59;;;;;;;5.28;3.50;;;;;;;7.96;41.20;100886.29;1778643;80;21651;-78
2021/03/06 03:11:32;;;;;;;5.58;3.45;;;;;;;7.96;41.43;100893.45;1778574;79;21640;-80
2021/03/06 03:14:00;;;;;;;4.28;3.20;;;;;;;7.93;41.47;100897.21;1776814;78;21171;-79
2021/03/06 03:16:38;;;;;;;5.10;3.27;;;;;;;7.94;41.39;100896.23;1787032;80;21192;-77
2021/03/06 03:19:17;;;;;;;7.60;4.08;;;;;;;7.93;41.17;100900.38;1781559;80;21125;-74
2021/03/06 03:21:48;;;;;;;6.70;4.25;;;;;;;7.92;41.09;100912.86;1781515;80;21699;-77
2021/03/06 03:24:20;;;;;;;5.15;3.80;;;;;;;7.88;41.02;100899.42;1781584;80;21622;-77
2021/03/06 03:26:48;;;;;;;7.50;4.17;;;;;;;7.86;40.85;100897.39;1781736;80;21171;-80
2021/03/06 03:29:16;;;;;;;4.78;3.50;;;;;;;7.85;40.74;100902.34;1781510;80;21184;-76
2021/03/06 03:31:47;;;;;;;5.95;3.47;;;;;;;7.85;40.65;100917.02;1745824;81;21167;-77
2021/03/06 03:34:16;;;;;;;4.42;2.52;;;;;;;7.82;40.38;100917.29;1756891;80;21169;-78
2021/03/06 03:36:44;;;;;;;3.85;2.70;;;;;;;7.82;40.12;100914.63;1812672;78;21726;-76
2021/03/06 03:39:11;;;;;;;5.33;3.02;;;;;;;7.81;39.95;100910.23;1813882;79;21463;-75
2021/03/06 03:41:39;;;;;;;4.08;2.52;;;;;;;7.79;39.79;100909.05;1782750;79;21172;-76
2021/03/06 03:44:08;;;;;;;3.92;2.20;;;;;;;7.78;39.48;100903.86;1798403;79;21633;-75
2021/03/06 03:46:35;;;;;;;3.77;2.70;;;;;;;7.78;39.30;100907.85;1749891;81;21169;-75
2021/03/06 03:49:04;;;;;;;3.72;2.87;;;;;;;7.78;39.32;100916.70;1725399;80;21239;-75
2021/03/06 03:51:33;;;;;;;4.33;2.77;;;;;;;7.77;39.12;100918.17;1715632;82;21155;-78
2021/03/06 03:54:00;;;;;;;3.22;2.40;;;;;;;7.75;39.05;100917.44;1750319;82;21491;-75
2021/03/06 03:56:28;;;;;;;2.80;2.17;;;;;;;7.69;38.87;100913.96;1782446;80;21157;-82
2021/03/06 03:58:56;;;;;;;2.62;2.10;;;;;;;7.65;38.89;100916.52;1750530;80;21242;-75
2021/03/06 04:01:24;;;;;;;2.52;1.72;;;;;;;7.61;38.90;100918.09;1784606;80;21137;-75
2021/03/06 04:03:51;;;;;;;3.10;1.80;;;;;;;7.57;38.85;100913.99;1784069;80;21213;-78
2021/03/06 04:06:18;;;;;;;5.60;1.85;;;;;;;7.55;38.75;100917.77;1749283;82;21151;-74
2021/03/06 04:08:46;;;;;;;2.80;1.92;;;;;;;7.52;38.83;100913.53;1750595;82;21205;-72
2021/03/06 04:11:14;;;;;;;2.52;2.12;;;;;;;7.51;38.83;100923.84;1783016;80;21149;-73
2021/03/06 04:13:42;;;;;;;2.85;1.75;;;;;;;7.48;38.84;100930.75;1778526;80;21739;-72
2021/03/06 04:16:09;;;;;;;5.00;1.87;;;;;;;7.47;38.88;100926.40;1799328;79;21174;-73
2021/03/06 04:18:37;;;;;;;4.40;1.57;;;;;;;7.46;38.99;100930.05;1717051;79;21121;-73
2021/03/06 04:21:04;;;;;;;1.70;1.55;;;;;;;7.44;38.95;100931.97;1760433;80;21149;-74
2021/03/06 04:23:32;;;;;;;2.98;1.70;;;;;;;7.39;38.98;100934.17;1787509;80;21433;-79
2021/03/06 04:25:59;;;;;;;3.60;1.82;;;;;;;7.36;39.14;100937.11;1752109;80;21266;-79
2021/03/06 04:28:27;;;;;;;3.27;1.87;;;;;;;7.34;39.12;100940.37;1786932;80;21419;-75
2021/03/06 04:30:54;;;;;;;2.77;1.52;;;;;;;7.30;39.25;100942.43;1740360;81;21162;-74
2021/03/06 04:33:22;;;;;;;3.98;2.15;;;;;;;7.28;39.33;100948.39;1725007;80;21193;-77
2021/03/06 04:35:50;;;;;;;2.52;1.70;;;;;;;7.26;39.39;100950.31;1787095;80;21228;-75
2021/03/06 04:38:17;;;;;;;3.33;2.15;;;;;;;7.24;39.51;100948.27;1812131;79;21166;-78
2021/03/06 04:40:45;;;;;;;2.95;2.20;;;;;;;7.23;39.64;100950.58;1813049;79;21193;-76
2021/03/06 04:43:14;;;;;;;3.85;2.15;;;;;;;7.23;39.82;100949.73;1809180;79;21168;-75
2021/03/06 04:45:41;;;;;;;3.77;2.45;;;;;;;7.22;39.78;100958.68;1777959;80;21193;-77
2021/03/06 04:48:08;;;;;;;5.42;2.40;;;;;;;7.21;39.70;100956.98;1777916;80;21189;-80
2021/03/06 04:50:38;;;;;;;4.90;2.40;;;;;;;7.19;39.56;100962.95;1784645;79;21427;-75
2021/03/06 04:53:06;;;;;;;7.95;3.22;;;;;;;7.17;39.28;100958.20;1780677;78;21240;-80
2021/03/06 04:55:33;;;;;;;3.83;2.40;;;;;;;7.13;39.22;100958.97;1779915;80;21740;-76
2021/03/06 04:58:01;;;;;;;3.40;2.58;;;;;;;7.11;39.13;100959.06;1779942;80;21205;-77
2021/03/06 05:00:29;;;;;;;3.27;2.52;;;;;;;7.10;39.11;100961.38;1779813;80;21217;-75
2021/03/06 05:02:56;;;;;;;5.50;3.10;;;;;;;7.08;39.00;100965.97;1779686;80;21177;-76
2021/03/06 05:05:24;;;;;;;5.78;2.80;;;;;;;7.05;39.10;100962.23;1778918;80;21185;-76
2021/03/06 05:07:51;;;;;;;3.77;2.75;;;;;;;7.05;39.15;100972.05;1779787;80;21198;-75
2021/03/06 05:10:21;;;;;;;6.08;3.55;;;;;;;7.05;39.15;100984.88;1779662;80;21217;-79
2021/03/06 05:12:48;;;;;;;4.50;2.87;;;;;;;7.02;39.22;100979.78;1779951;80;21182;-78
2021/03/06 05:15:18;;;;;;;3.95;2.90;;;;;;;7.01;39.09;100993.23;1779419;79;21214;-79
2021/03/06 05:17:46;;;;;;;4.12;2.95;;;;;;;6.98;39.23;101000.13;1805152;79;21164;-77
2021/03/06 05:20:13;;;;;;;6.05;2.98;;;;;;;6.99;39.43;101013.31;1812556;79;21205;-77
2021/03/06 05:22:41;;;;;;;4.55;2.70;;;;;;;6.98;39.67;101022.77;1781289;79;21225;-78
2021/03/06 05:25:10;;;;;;;7.00;3.17;;;;;;;6.99;39.89;101029.29;1781305;80;21582;-79
2021/03/06 05:27:40;;;;;;;8.58;3.17;;;;;;;7.01;40.12;101033.19;1782161;80;21183;-76
2021/03/06 05:30:11;;;;;;;4.53;3.20;;;;;;;7.03;40.10;101036.07;1780898;80;21180;-78
2021/03/06 05:32:39;;;;;;;5.10;2.80;;;;;;;7.04;40.19;101043.58;1781050;80;21200;-74
2021/03/06 05:35:07;;;;;;;3.83;2.55;;;;;;;7.05;40.02;101049.30;1781060;80;21587;-78
2021/03/06 05:37:35;;;;;;;4.87;2.75;;;;;;;7.06;39.92;101052.31;1780888;80;21187;-77
2021/03/06 05:40:04;;;;;;;4.72;2.50;;;;;;;7.08;39.92;101050.36;1780816;80;21694;-78
2021/03/06 05:42:33;;;;;;;3.75;2.33;;;;;;;7.10;39.68;101047.95;1781031;80;21202;-81
2021/03/06 05:45:01;;;;;;;3.55;2.37;;;;;;;7.14;39.41;101053.89;1746621;80;21177;-75
2021/03/06 05:47:29;;;;;;;4.58;2.67;;;;;;;7.18;39.15;101055.34;1775997;78;21133;-81
2021/03/06 05:49:57;;;;;;;4.35;2.90;;;;;;;7.23;38.95;101060.31;1748285;80;21243;-79
2021/03/06 05:52:27;;;;;;;2.87;2.20;;;;;;;7.30;38.82;101065.50;1811338;79;21292;-80
2021/03/06 05:54:56;;;;;;;2.65;2.12;;;;;;;7.37;38.51;101074.22;1780717;80;21171;-78
2021/03/06 05:57:24;;;;;;;3.17;1.98;;;;;;;7.42;38.35;101083.19;1780692;80;21674;-79
2021/03/06 05:59:52;;;;;;;5.70;2.30;;;;;;;7.49;38.06;101083.53;1778795;79;21173;-78
2021/03/06 06:02:21;;;;;;;3.52;2.22;;;;;;;7.54;37.98;101082.67;1779726;80;21194;-79
2021/03/06 06:04:49;;;;;;;3.17;1.92;;;;;;;7.59;37.66;101096.02;1780258;80;21184;-80
2021/03/06 06:07:18;;;;;;;2.72;1.67;;;;;;;7.63;37.31;101098.80;1812521;79;21211;-79
2021/03/06 06:09:45;;;;;;;3.70;2.15;;;;;;;7.67;37.15;101099.86;1780361;80;21168;-79
2021/03/06 06:12:13;;;;;;;2.62;2.37;;;;;;;7.72;36.83;101101.67;1807621;79;21181;-75
2021/03/06 06:14:43;;;;;;;2.95;1.57;;;;;;;7.77;36.76;101108.84;1793350;79;21185;-77
2021/03/06 06:17:11;;;;;;;2.92;1.67;;;;;;;7.79;36.51;101106.88;1716881;81;21628;-76
2021/03/06 06:19:43;;;;;;;4.05;2.10;;;;;;;7.84;36.32;101114.02;1772280;79;21691;-76
2021/03/06 06:22:23;;;;;;;3.52;1.70;;;;;;;7.88;36.16;101111.47;1771869;79;21664;-77
2021/03/06 06:24:52;;;;;;;2.92;1.70;;;;;;;7.93;35.85;101113.76;1771930;81;21169;-78
2021/03/06 06:27:28;;;;;;;2.52;1.67;;;;;;;7.95;35.72;101118.02;1740076;81;21217;-79
2021/03/06 06:29:58;;;;;;;3.87;2.00;;;;;;;7.93;35.61;101123.94;1789972;79;22177;-75
2021/03/06 06:32:43;;;;;;;3.90;1.80;;;;;;;7.89;35.57;101126.49;1749811;80;21194;-78
2021/03/06 06:35:14;;;;;;;4.35;1.87;;;;;;;7.83;35.54;101133.67;1778267;80;21212;-77
2021/03/06 06:38:00;;;;;;;3.25;2.00;;;;;;;7.76;35.71;101135.12;1779390;80;21232;-77
2021/03/06 06:40:29;;;;;;;5.20;2.45;;;;;;;7.69;35.80;101137.45;1779522;80;21180;-78
2021/03/06 06:42:57;;;;;;;3.55;2.45;;;;;;;7.60;35.96;101144.36;1779684;80;21663;-77
2021/03/06 06:45:25;;;;;;;2.55;1.90;;;;;;;7.52;36.06;101137.45;1782368;79;21168;-79
2021/03/06 06:47:56;;;;;;;3.30;1.70;;;;;;;7.53;36.04;101135.63;1779722;80;21257;-79
2021/03/06 06:50:32;;;;;;;2.67;1.70;;;;;;;7.47;36.12;101144.97;1744936;80;21169;-78
2021/03/06 06:52:59;;;;;;;3.10;1.70;;;;;;;7.41;36.07;101146.80;1773215;80;21204;-77
2021/03/06 06:55:37;;;;;;;3.05;1.80;;;;;;;7.33;36.04;101146.05;1811185;79;21652;-75
2021/03/06 06:58:05;;;;;;;2.35;1.75;;;;;;;7.27;36.11;101146.55;1811300;79;21450;-76
2021/03/06 07:00:35;;;;;;;2.90;2.17;;;;;;;7.23;36.29;101150.91;1775188;80;21208;-76
2021/03/06 07:03:05;;;;;;;5.12;2.45;;;;;;;7.20;36.18;101147.13;1811493;79;21217;-82
2021/03/06 07:05:37;;;;;;;3.62;2.05;;;;;;;7.20;36.25;101153.80;1779694;80;21680;-77
2021/03/06 07:08:10;;;;;;;2.67;1.80;;;;;;;7.20;36.13;101155.97;1812049;79;21200;-77
2021/03/06 07:10:40;;;;;;;3.62;1.70;;;;;;;7.18;36.05;101152.59;1777364;80;21086;-77
2021/03/06 07:13:09;;;;;;;5.60;3.25;;;;;;;7.19;35.85;101160.09;1815126;79;21157;-77
2021/03/06 07:15:38;;;;;;;8.40;3.87;;;;;;;7.14;35.75;101158.28;1781108;80;21224;-79
2021/03/06 07:18:18;;;;;;;11.28;5.42;;;;;;;7.10;35.79;101157.66;1807737;79;21228;-76
2021/03/06 07:20:46;;;;;;;6.15;3.35;;;;;;;7.08;35.86;101159.09;1801101;79;21169;-80
2021/03/06 07:23:24;;;;;;;8.15;4.20;;;;;;;7.06;35.83;101159.70;1746370;80;21142;-77
2021/03/06 07:25:54;;;;;;;5.17;2.75;;;;;;;7.07;35.63;101160.55;1757945;80;21212;-75
2021/03/06 07:28:22;;;;;;;3.55;1.60;;;;;;;7.08;35.57;101154.25;1756659;80;22058;-78
2021/03/06 07:30:50;;;;;;;2.05;1.30;;;;;;;7.08;35.53;101166.23;1776591;80;21137;-79
2021/03/06 07:33:18;;;;;;;2.30;1.42;;;;;;;7.09;35.26;101171.95;1822936;77;21593;-78
2021/03/06 07:35:48;;;;;;;4.58;1.67;;;;;;;7.08;34.98;101166.23;1815917;77;21106;-76
2021/03/06 07:38:17;;;;;;;2.83;1.22;;;;;;;7.14;34.86;101174.27;1844508;77;21105;-78
2021/03/06 07:40:58;;;;;;;1.27;1.12;;;;;;;7.29;34.91;101163.25;1836706;77;21117;-78
2021/03/06 07:43:33;;;;;;;1.42;1.32;;;;;;;7.51;34.61;101167.75;1795455;77;21212;-78
2021/03/06 07:46:01;;;;;;;2.02;1.47;;;;;;;7.80;34.35;101176.58;1831371;77;21199;-77
2021/03/06 07:48:43;;;;;;;1.35;1.15;;;;;;;8.09;34.07;101173.76;1782888;79;21612;-76
2021/03/06 07:51:10;;;;;;;1.98;1.50;;;;;;;8.38;33.81;101179.40;1737927;81;21201;-76
2021/03/06 07:53:38;;;;;;;4.83;1.30;;;;;;;8.68;33.15;101169.83;1785300;79;21257;-80
2021/03/06 07:56:06;;;;;;;2.05;1.57;;;;;;;8.89;33.01;101169.83;1766132;79;21212;-78
2021/03/06 07:58:52;;;;;;;1.32;1.20;;;;;;;9.10;32.63;101173.36;1740120;81;21241;-77
2021/03/06 08:01:26;;;;;;;2.30;1.25;;;;;;;9.30;32.08;101175.64;1766935;80;21122;-78
2021/03/06 08:03:54;;;;;;;3.12;1.47;;;;;;;9.50;31.59;101172.59;1775486;79;21098;-77
2021/03/06 08:06:29;;;;;;;2.77;1.40;;;;;;;9.67;31.34;101176.45;1748932;80;21115;-77
2021/03/06 08:09:02;;;;;;;2.42;1.72;;;;;;;9.84;31.11;101174.97;1790488;79;21162;-77
2021/03/06 08:11:39;;;;;;;3.00;1.35;;;;;;;9.97;30.77;101185.44;1789463;79;21104;-77
2021/03/06 08:14:29;;;;;;;3.10;1.30;;;;;;;10.10;30.47;101181.53;1778646;79;21201;-79
2021/03/06 08:16:58;;;;;;;3.17;1.62;;;;;;;10.23;30.38;101188.47;1748669;79;21728;-76
2021/03/06 08:19:26;;;;;;;3.20;1.67;;;;;;;10.36;30.28;101191.77;1765369;79;21173;-75
2021/03/06 08:21:56;;;;;;;3.65;1.75;;;;;;;10.50;30.44;101193.19;1790215;79;21209;-76
2021/03/06 08:24:28;;;;;;;2.08;1.60;;;;;;;10.63;30.52;101193.77;1789611;79;22254;-76
2021/03/06 08:27:07;;;;;;;5.62;1.62;;;;;;;10.77;30.31;101201.88;1779271;79;21422;-79
2021/03/06 08:29:38;;;;;;;3.22;1.57;;;;;;;10.89;30.20;101192.19;1750098;81;21193;-76
2021/03/06 08:32:17;;;;;;;3.90;2.20;;;;;;;10.99;29.96;101194.89;1772513;80;21177;-79
2021/03/06 08:34:59;;;;;;;4.37;2.20;;;;;;;11.09;29.75;101195.70;1755718;80;21139;-77
2021/03/06 08:37:29;;;;;;;2.95;1.92;;;;;;;11.14;29.38;101200.64;1763598;81;21147;-74
2021/03/06 08:40:11;;;;;;;4.47;1.60;;;;;;;11.16;29.33;101198.15;1769899;79;21197;-77
2021/03/06 08:42:51;;;;;;;5.28;1.90;;;;;;;11.21;28.83;101202.23;1779823;79;21119;-76
2021/03/06 08:45:29;;;;;;;5.22;1.77;;;;;;;11.24;28.61;101203.30;1756065;79;21118;-75
2021/03/06 08:48:02;;;;;;;1.85;1.22;;;;;;;11.22;28.40;101209.28;1752727;81;21154;-75
2021/03/06 08:50:33;;;;;;;2.33;1.45;;;;;;;11.18;27.99;101215.45;1761075;80;21102;-81
2021/03/06 08:53:07;;;;;;;1.72;1.32;;;;;;;11.17;27.93;101217.30;1760073;80;21114;-79
2021/03/06 08:55:43;;;;;;;2.25;1.50;;;;;;;11.16;27.76;101220.94;1762419;80;21109;-77
2021/03/06 08:58:18;;;;;;;2.22;1.50;;;;;;;11.08;27.74;101226.20;1768990;80;21133;-77
2021/03/06 09:00:48;;;;;;;1.72;1.35;;;;;;;10.96;27.84;101220.63;1759249;80;21142;-75
2021/03/06 09:03:24;;;;;;;3.17;1.47;;;;;;;10.89;27.91;101229.70;1744943;80;21653;-76
2021/03/06 09:05:57;;;;;;;2.62;1.50;;;;;;;10.80;27.92;101229.22;1772365;79;21106;-77
2021/03/06 09:08:27;;;;;;;2.80;1.40;;;;;;;10.68;27.71;101223.66;1792740;79;21133;-77
2021/03/06 09:10:58;;;;;;;4.65;1.70;;;;;;;10.55;27.86;101227.95;1766658;79;21123;-76
2021/03/06 09:13:28;;;;;;;3.55;2.05;;;;;;;10.48;28.12;101232.15;1787806;79;21137;-78
2021/03/06 09:16:05;;;;;;;4.30;1.98;;;;;;;10.35;28.19;101240.93;1775694;79;21536;-78
2021/03/06 09:18:38;;;;;;;3.37;1.72;;;;;;;10.26;28.30;101239.08;1746182;81;21209;-78
2021/03/06 09:21:09;;;;;;;3.50;1.50;;;;;;;10.22;28.50;101251.01;1769652;81;21102;-79
2021/03/06 09:23:39;;;;;;;7.92;1.87;;;;;;;10.21;28.83;101246.64;1783289;78;21216;-77
2021/03/06 09:26:21;;;;;;;4.55;2.10;;;;;;;10.08;29.20;101252.23;1760937;81;21493;-78
2021/03/06 09:28:50;;;;;;;3.08;1.80;;;;;;;9.97;29.60;101256.36;1751131;80;21113;-76
2021/03/06 09:31:28;;;;;;;4.47;2.35;;;;;;;9.90;29.58;101263.59;1747889;80;21090;-77
2021/03/06 09:34:02;;;;;;;3.15;2.00;;;;;;;9.84;29.71;101272.63;1749657;80;21188;-79
2021/03/06 09:36:31;;;;;;;4.35;1.87;;;;;;;9.79;29.82;101269.52;1761732;80;21197;-76
2021/03/06 09:39:02;;;;;;;3.87;2.37;;;;;;;9.70;29.91;101275.17;1764495;80;21210;-79
2021/03/06 09:41:33;;;;;;;6.58;2.10;;;;;;;9.72;30.09;101277.70;1765038;80;21198;-79
2021/03/06 09:44:02;;;;;;;3.33;2.10;;;;;;;9.68;30.16;101277.64;1750388;80;21201;-76
2021/03/06 09:46:32;;;;;;;5.72;2.30;;;;;;;9.65;30.30;101282.75;1756661;80;21449;-81
2021/03/06 09:49:14;;;;;;;3.52;2.00;;;;;;;9.64;30.22;101279.72;1762183;80;21126;-76
2021/03/06 09:51:52;;;;;;;3.50;1.75;;;;;;;9.63;30.01;101283.39;1777988;79;21122;-77
2021/03/06 09:54:22;;;;;;;2.05;1.47;;;;;;;9.60;30.12;101282.30;1782899;78;21114;-76
2021/03/06 09:56:59;;;;;;;3.87;1.50;;;;;;;9.57;30.05;101287.41;1751193;80;21660;-77
2021/03/06 09:59:28;;;;;;;3.35;1.80;;;;;;;9.54;29.97;101290.37;1748950;80;21566;-77
2021/03/06 10:02:05;;;;;;;3.75;1.75;;;;;;;9.54;30.10;101284.17;1797615;79;21581;-78
2021/03/06 10:04:33;;;;;;;;;;;;;;;9.56;30.07;101289.73;1789602;79;21758;-77
2021/03/06 10:07:00;;;;;;;2.52;1.60;;;;;;;9.53;30.26;101296.67;1797021;79;20369;-75
2021/03/06 10:09:32;;;;;;;4.37;1.60;;;;;;;9.51;30.45;101295.13;1772669;79;21430;-79
2021/03/06 10:12:05;;;;;;;1.67;1.22;;;;;;;9.52;30.28;101287.45;1764368;79;21189;-76
2021/03/06 10:14:32;;;;;;;2.12;1.35;;;;;;;9.53;30.16;101291.81;1782799;79;21480;-77
2021/03/06 10:17:05;;;;;;;3.92;1.50;;;;;;;9.49;30.11;101287.70;1741876;79;21191;-77
2021/03/06 10:19:50;;;;;;;2.22;1.20;;;;;;;9.50;30.29;101286.75;1763231;80;21229;-74
2021/03/06 10:22:19;;;;;;;2.05;1.32;;;;;;;9.56;30.07;101292.90;1781434;79;21226;-78
2021/03/06 10:24:59;;;;;;;2.10;1.47;;;;;;;9.57;29.93;101291.91;1783228;79;21131;-74
2021/03/06 10:27:47;;;;;;;2.33;1.10;;;;;;;9.59;30.14;101280.61;1781874;79;21600;-76
2021/03/06 10:30:23;;;;;;;1.70;1.12;;;;;;;9.63;29.77;101290.91;1774540;79;21145;-75
2021/03/06 10:32:57;;;;;;;2.80;1.10;;;;;;;9.63;29.37;101296.76;1789141;79;21080;-77
2021/03/06 10:35:46;;;;;;;2.65;1.32;;;;;;;9.62;29.57;101293.70;1763495;79;21133;-78
2021/03/06 10:38:25;;;;;;;3.75;2.15;;;;;;;9.63;29.36;101295.42;1796193;79;21034;-76
2021/03/06 10:41:02;;;;;;;3.42;1.60;;;;;;;9.60;29.31;101295.18;1738632;82;21225;-75
2021/03/06 10:43:36;;;;;;;4.47;1.40;;;;;;;9.59;28.97;101288.63;1746418;81;21648;-78
2021/03/06 10:46:35;;;;;;;2.15;1.95;;;;;;;9.59;29.00;101285.96;1799136;79;21474;-79
2021/03/06 10:49:07;;;;;;;1.75;1.02;;;;;;;9.60;28.78;101289.83;1776176;79;21201;-81
2021/03/06 10:51:52;;;;;;;2.70;1.70;;;;;;;9.58;28.59;101280.23;1768571;80;21195;-77
2021/03/06 10:54:22;;;;;;;3.05;1.65;;;;;;;9.58;28.55;101283.78;1778890;79;21182;-78
2021/03/06 10:57:05;;;;;;;3.58;1.75;;;;;;;9.64;28.86;101292.61;1787496;79;21205;-81
2021/03/06 10:59:36;;;;;;;4.80;1.92;;;;;;;9.65;28.43;101280.92;1766477;79;21178;-77
2021/03/06 11:02:04;;;;;;;2.17;1.92;;;;;;;9.64;27.98;101287.25;1792107;79;21605;-79
2021/03/06 11:04:36;;;;;;;4.85;3.10;;;;;;;9.61;27.97;101286.17;1775172;79;21190;-78
2021/03/06 11:07:07;;;;;;;2.67;2.15;;;;;;;9.58;27.68;101284.23;1774540;79;21146;-77
2021/03/06 11:09:37;;;;;;;3.52;2.17;;;;;;;9.53;27.76;101277.11;1769686;81;21150;-77
2021/03/06 11:12:25;;;;;;;4.90;2.35;;;;;;;9.49;27.74;101275.67;1796298;79;21105;-79
2021/03/06 11:15:14;;;;;;;6.47;2.58;;;;;;;9.45;28.19;101276.44;1780678;79;21126;-79
2021/03/06 11:17:45;;;;;;;2.20;1.47;;;;;;;9.44;28.60;101276.06;1716808;80;21262;-77
2021/03/06 11:20:17;;;;;;;1.07;0.93;;;;;;;9.44;28.51;101284.08;1730569;80;21197;-79
2021/03/06 11:22:45;;;;;;;2.35;1.37;;;;;;;9.41;27.77;101279.02;1733009;80;21205;-76
2021/03/06 11:25:15;;;;;;;1.98;1.30;;;;;;;9.38;27.61;101277.93;1760986;80;21238;-79
2021/03/06 11:27:56;;;;;;;1.42;1.25;;;;;;;9.33;27.52;101272.13;1761019;80;21843;-76
2021/03/06 11:30:39;;;;;;;1.67;1.00;;;;;;;9.30;27.33;101274.56;1763447;81;21189;-81
2021/03/06 11:33:09;;;;;;;2.95;1.30;;;;;;;9.28;27.68;101273.86;1758288;79;21182;-77
2021/03/06 11:35:38;;;;;;;5.35;1.72;;;;;;;9.25;27.95;101266.58;1746131;81;21713;-75
2021/03/06 11:38:08;;;;;;;1.75;1.37;;;;;;;9.20;28.10;101280.33;1775983;79;21671;-77
2021/03/06 11:40:40;;;;;;;1.98;1.32;;;;;;;9.18;27.94;101281.45;1775791;79;21214;-77
2021/03/06 11:43:08;;;;;;;3.83;1.80;;;;;;;9.12;27.87;101275.62;1768909;79;21708;-77
2021/03/06 11:45:36;;;;;;;1.55;1.30;;;;;;;9.11;27.90;101271.26;1768826;80;21684;-78
2021/03/06 11:48:06;;;;;;;2.08;1.35;;;;;;;9.05;27.61;101274.45;1739439;81;21221;-77
2021/03/06 11:50:38;;;;;;;2.27;1.50;;;;;;;9.03;27.69;101272.38;1768413;81;21209;-77
2021/03/06 11:53:07;;;;;;;2.27;1.55;;;;;;;9.01;27.63;101279.70;1770683;80;21150;-76
2021/03/06 11:55:34;;;;;;;3.20;1.77;;;;;;;8.97;28.03;101280.92;1750759;80;21542;-78